sensor_id;sensor_type;location;lat;lon;timestamp;temperature;humidity
4635;DHT22;2330;48.158;11.816;2024-02-15T00:00:58;8.20;98.50
4635;DHT22;2330;48.158;11.816;2024-02-15T00:03:26;8.10;98.50
4635;DHT22;2330;48.158;11.816;2024-02-15T00:05:53;8.10;98.50
4635;DHT22;2330;48.158;11.816;2024-02-15T00:08:20;8.20;98.50
4635;DHT22;2330;48.158;11.816;2024-02-15T00:10:47;8.30;98.50
4635;DHT22;2330;48.158;11.816;2024-02-15T00:13:14;8.30;98.50
4635;DHT22;2330;48.158;11.816;2024-02-15T00:15:41;8.20;98.50
4635;DHT22;2330;48.158;11.816;2024-02-15T00:18:08;8.10;98.50
4635;DHT22;2330;48.158;11.816;2024-02-15T00:20:35;8.00;98.50
4635;DHT22;2330;48.158;11.816;2024-02-15T00:23:02;8.00;98.50
4635;DHT22;2330;48.158;11.816;2024-02-15T00:25:29;8.10;98.50
4635;DHT22;2330;48.158;11.816;2024-02-15T00:27:57;8.10;98.50
4635;DHT22;2330;48.158;11.816;2024-02-15T00:30:24;8.10;98.50
4635;DHT22;2330;48.158;11.816;2024-02-15T00:32:51;8.10;98.50
4635;DHT22;2330;48.158;11.816;2024-02-15T00:35:18;8.20;98.50
4635;DHT22;2330;48.158;11.816;2024-02-15T00:37:46;8.10;98.50
4635;DHT22;2330;48.158;11.816;2024-02-15T00:40:13;8.00;98.50
4635;DHT22;2330;48.158;11.816;2024-02-15T00:42:39;8.00;98.50
4635;DHT22;2330;48.158;11.816;2024-02-15T00:45:06;7.90;98.50
4635;DHT22;2330;48.158;11.816;2024-02-15T00:47:39;7.90;98.50
4635;DHT22;2330;48.158;11.816;2024-02-15T00:50:09;7.90;98.50
4635;DHT22;2330;48.158;11.816;2024-02-15T00:52:37;7.90;98.50
4635;DHT22;2330;48.158;11.816;2024-02-15T00:55:04;7.80;98.50
4635;DHT22;2330;48.158;11.816;2024-02-15T00:57:31;7.80;98.50
4635;DHT22;2330;48.158;11.816;2024-02-15T00:59:58;7.80;98.50
4635;DHT22;2330;48.158;11.816;2024-02-15T01:02:26;7.80;98.50
4635;DHT22;2330;48.158;11.816;2024-02-15T01:04:54;7.80;98.50
4635;DHT22;2330;48.158;11.816;2024-02-15T01:07:24;7.80;98.50
4635;DHT22;2330;48.158;11.816;2024-02-15T01:09:54;7.80;98.50
4635;DHT22;2330;48.158;11.816;2024-02-15T01:12:21;7.70;98.50
4635;DHT22;2330;48.158;11.816;2024-02-15T01:14:48;7.70;98.50
4635;DHT22;2330;48.158;11.816;2024-02-15T01:17:15;7.80;98.50
4635;DHT22;2330;48.158;11.816;2024-02-15T01:19:44;7.70;98.50
4635;DHT22;2330;48.158;11.816;2024-02-15T01:22:12;7.70;98.50
4635;DHT22;2330;48.158;11.816;2024-02-15T01:24:39;7.70;98.50
4635;DHT22;2330;48.158;11.816;2024-02-15T01:27:06;7.70;98.50
4635;DHT22;2330;48.158;11.816;2024-02-15T01:29:35;7.70;98.50
4635;DHT22;2330;48.158;11.816;2024-02-15T01:32:02;7.70;98.50
4635;DHT22;2330;48.158;11.816;2024-02-15T01:34:30;7.70;98.50
4635;DHT22;2330;48.158;11.816;2024-02-15T01:36:57;7.80;98.50
4635;DHT22;2330;48.158;11.816;2024-02-15T01:39:24;7.80;98.50
4635;DHT22;2330;48.158;11.816;2024-02-15T01:41:50;7.80;98.50
4635;DHT22;2330;48.158;11.816;2024-02-15T01:44:18;7.80;98.50
4635;DHT22;2330;48.158;11.816;2024-02-15T01:46:47;7.80;98.50
4635;DHT22;2330;48.158;11.816;2024-02-15T01:49:15;7.90;98.50
4635;DHT22;2330;48.158;11.816;2024-02-15T01:51:42;7.80;98.50
4635;DHT22;2330;48.158;11.816;2024-02-15T01:54:11;7.70;98.50
4635;DHT22;2330;48.158;11.816;2024-02-15T01:56:39;7.70;98.50
4635;DHT22;2330;48.158;11.816;2024-02-15T01:59:07;7.60;98.50
4635;DHT22;2330;48.158;11.816;2024-02-15T02:01:34;7.60;98.50
4635;DHT22;2330;48.158;11.816;2024-02-15T02:04:01;7.60;98.50
4635;DHT22;2330;48.158;11.816;2024-02-15T02:06:30;7.60;98.50
4635;DHT22;2330;48.158;11.816;2024-02-15T02:08:59;7.60;98.50
4635;DHT22;2330;48.158;11.816;2024-02-15T02:11:26;7.50;98.50
4635;DHT22;2330;48.158;11.816;2024-02-15T02:13:53;7.50;98.50
4635;DHT22;2330;48.158;11.816;2024-02-15T02:16:30;7.40;98.50
4635;DHT22;2330;48.158;11.816;2024-02-15T02:18:59;7.40;98.50
4635;DHT22;2330;48.158;11.816;2024-02-15T02:21:27;7.30;98.50
4635;DHT22;2330;48.158;11.816;2024-02-15T02:23:58;7.30;98.50
4635;DHT22;2330;48.158;11.816;2024-02-15T02:26:25;7.40;98.50
4635;DHT22;2330;48.158;11.816;2024-02-15T02:28:52;7.50;98.50
4635;DHT22;2330;48.158;11.816;2024-02-15T02:31:22;7.50;98.50
4635;DHT22;2330;48.158;11.816;2024-02-15T02:33:53;7.40;98.50
4635;DHT22;2330;48.158;11.816;2024-02-15T02:36:21;7.40;98.50
4635;DHT22;2330;48.158;11.816;2024-02-15T02:38:48;7.50;98.50
4635;DHT22;2330;48.158;11.816;2024-02-15T02:41:17;7.50;98.50
4635;DHT22;2330;48.158;11.816;2024-02-15T02:43:46;7.50;98.50
4635;DHT22;2330;48.158;11.816;2024-02-15T02:46:13;7.50;98.50
4635;DHT22;2330;48.158;11.816;2024-02-15T02:48:40;7.50;98.50
4635;DHT22;2330;48.158;11.816;2024-02-15T02:51:07;7.50;98.50
4635;DHT22;2330;48.158;11.816;2024-02-15T02:53:34;7.40;98.50
4635;DHT22;2330;48.158;11.816;2024-02-15T02:56:02;7.40;98.50
4635;DHT22;2330;48.158;11.816;2024-02-15T02:58:30;7.40;98.50
4635;DHT22;2330;48.158;11.816;2024-02-15T03:00:57;7.40;98.50
4635;DHT22;2330;48.158;11.816;2024-02-15T03:03:27;7.40;98.50
4635;DHT22;2330;48.158;11.816;2024-02-15T03:05:54;7.50;98.50
4635;DHT22;2330;48.158;11.816;2024-02-15T03:08:21;7.40;98.50
4635;DHT22;2330;48.158;11.816;2024-02-15T03:10:49;7.40;98.50
4635;DHT22;2330;48.158;11.816;2024-02-15T03:13:17;7.50;98.50
4635;DHT22;2330;48.158;11.816;2024-02-15T03:15:45;7.50;98.50
4635;DHT22;2330;48.158;11.816;2024-02-15T03:18:15;7.70;98.50
4635;DHT22;2330;48.158;11.816;2024-02-15T03:20:43;7.70;98.50
4635;DHT22;2330;48.158;11.816;2024-02-15T03:23:10;7.60;98.50
4635;DHT22;2330;48.158;11.816;2024-02-15T03:25:38;7.50;98.50
4635;DHT22;2330;48.158;11.816;2024-02-15T03:28:05;7.50;98.50
4635;DHT22;2330;48.158;11.816;2024-02-15T03:30:32;7.50;98.50
4635;DHT22;2330;48.158;11.816;2024-02-15T03:33:01;7.50;98.50
4635;DHT22;2330;48.158;11.816;2024-02-15T03:35:33;7.50;98.50
4635;DHT22;2330;48.158;11.816;2024-02-15T03:38:00;7.40;98.50
4635;DHT22;2330;48.158;11.816;2024-02-15T03:40:27;7.40;98.50
4635;DHT22;2330;48.158;11.816;2024-02-15T03:42:56;7.40;98.50
4635;DHT22;2330;48.158;11.816;2024-02-15T03:45:23;7.40;98.50
4635;DHT22;2330;48.158;11.816;2024-02-15T03:47:52;7.40;98.50
4635;DHT22;2330;48.158;11.816;2024-02-15T03:50:20;7.40;98.50
4635;DHT22;2330;48.158;11.816;2024-02-15T03:52:49;7.40;98.50
4635;DHT22;2330;48.158;11.816;2024-02-15T03:55:18;7.30;98.50
4635;DHT22;2330;48.158;11.816;2024-02-15T03:57:45;7.30;98.50
4635;DHT22;2330;48.158;11.816;2024-02-15T04:00:15;7.30;98.50
4635;DHT22;2330;48.158;11.816;2024-02-15T04:02:48;7.30;98.50
4635;DHT22;2330;48.158;11.816;2024-02-15T04:05:16;7.40;98.50
4635;DHT22;2330;48.158;11.816;2024-02-15T04:07:45;7.40;98.50
4635;DHT22;2330;48.158;11.816;2024-02-15T04:10:12;7.40;98.50
4635;DHT22;2330;48.158;11.816;2024-02-15T04:12:39;7.30;98.50
4635;DHT22;2330;48.158;11.816;2024-02-15T04:15:09;7.30;98.50
4635;DHT22;2330;48.158;11.816;2024-02-15T04:17:41;7.30;98.50
4635;DHT22;2330;48.158;11.816;2024-02-15T04:20:10;7.30;98.50
4635;DHT22;2330;48.158;11.816;2024-02-15T04:22:38;7.30;98.50
4635;DHT22;2330;48.158;11.816;2024-02-15T04:25:06;7.30;98.50
4635;DHT22;2330;48.158;11.816;2024-02-15T04:27:34;7.30;98.50
4635;DHT22;2330;48.158;11.816;2024-02-15T04:30:02;7.20;98.50
4635;DHT22;2330;48.158;11.816;2024-02-15T04:32:29;7.20;98.50
4635;DHT22;2330;48.158;11.816;2024-02-15T04:35:01;7.20;98.50
4635;DHT22;2330;48.158;11.816;2024-02-15T04:37:29;7.10;98.50
4635;DHT22;2330;48.158;11.816;2024-02-15T04:39:59;7.10;98.50
4635;DHT22;2330;48.158;11.816;2024-02-15T04:42:34;7.10;98.50
4635;DHT22;2330;48.158;11.816;2024-02-15T04:45:02;7.10;98.50
4635;DHT22;2330;48.158;11.816;2024-02-15T04:47:29;7.10;98.50
4635;DHT22;2330;48.158;11.816;2024-02-15T04:49:57;7.10;98.50
4635;DHT22;2330;48.158;11.816;2024-02-15T04:52:23;7.00;98.50
4635;DHT22;2330;48.158;11.816;2024-02-15T04:54:51;7.00;98.50
4635;DHT22;2330;48.158;11.816;2024-02-15T04:57:17;7.00;98.50
4635;DHT22;2330;48.158;11.816;2024-02-15T04:59:44;7.00;98.50
4635;DHT22;2330;48.158;11.816;2024-02-15T05:02:14;7.00;98.50
4635;DHT22;2330;48.158;11.816;2024-02-15T05:04:41;7.00;98.50
4635;DHT22;2330;48.158;11.816;2024-02-15T05:07:10;7.00;98.50
4635;DHT22;2330;48.158;11.816;2024-02-15T05:09:37;7.00;98.50
4635;DHT22;2330;48.158;11.816;2024-02-15T05:12:04;7.00;98.50
4635;DHT22;2330;48.158;11.816;2024-02-15T05:14:32;6.90;98.50
4635;DHT22;2330;48.158;11.816;2024-02-15T05:16:59;6.90;98.50
4635;DHT22;2330;48.158;11.816;2024-02-15T05:19:27;6.90;98.50
4635;DHT22;2330;48.158;11.816;2024-02-15T05:21:54;6.80;98.50
4635;DHT22;2330;48.158;11.816;2024-02-15T05:24:22;6.80;98.50
4635;DHT22;2330;48.158;11.816;2024-02-15T05:26:49;6.80;98.50
4635;DHT22;2330;48.158;11.816;2024-02-15T05:29:17;7.10;98.50
4635;DHT22;2330;48.158;11.816;2024-02-15T05:31:44;7.30;98.50
4635;DHT22;2330;48.158;11.816;2024-02-15T05:34:12;7.50;98.50
4635;DHT22;2330;48.158;11.816;2024-02-15T05:36:39;7.50;98.50
4635;DHT22;2330;48.158;11.816;2024-02-15T05:39:06;7.60;98.50
4635;DHT22;2330;48.158;11.816;2024-02-15T05:41:34;7.60;98.50
4635;DHT22;2330;48.158;11.816;2024-02-15T05:44:01;7.50;98.50
4635;DHT22;2330;48.158;11.816;2024-02-15T05:46:31;7.40;98.50
4635;DHT22;2330;48.158;11.816;2024-02-15T05:48:58;7.40;98.50
4635;DHT22;2330;48.158;11.816;2024-02-15T05:51:26;7.30;98.50
4635;DHT22;2330;48.158;11.816;2024-02-15T05:53:54;7.10;98.50
4635;DHT22;2330;48.158;11.816;2024-02-15T05:56:26;7.00;98.50
4635;DHT22;2330;48.158;11.816;2024-02-15T05:58:52;6.80;98.50
4635;DHT22;2330;48.158;11.816;2024-02-15T06:01:19;6.60;98.50
4635;DHT22;2330;48.158;11.816;2024-02-15T06:03:46;6.50;98.50
4635;DHT22;2330;48.158;11.816;2024-02-15T06:06:15;6.40;98.50
4635;DHT22;2330;48.158;11.816;2024-02-15T06:08:46;6.30;98.50
4635;DHT22;2330;48.158;11.816;2024-02-15T06:11:18;6.20;98.50
4635;DHT22;2330;48.158;11.816;2024-02-15T06:13:45;6.10;98.50
4635;DHT22;2330;48.158;11.816;2024-02-15T06:16:12;6.10;98.50
4635;DHT22;2330;48.158;11.816;2024-02-15T06:18:39;6.00;98.50
4635;DHT22;2330;48.158;11.816;2024-02-15T06:21:06;5.90;98.50
4635;DHT22;2330;48.158;11.816;2024-02-15T06:23:33;5.90;98.50
4635;DHT22;2330;48.158;11.816;2024-02-15T06:26:00;5.90;98.50
4635;DHT22;2330;48.158;11.816;2024-02-15T06:28:29;5.90;98.50
4635;DHT22;2330;48.158;11.816;2024-02-15T06:31:15;5.90;98.50
4635;DHT22;2330;48.158;11.816;2024-02-15T06:34:00;6.00;98.50
4635;DHT22;2330;48.158;11.816;2024-02-15T06:36:52;6.00;98.50
4635;DHT22;2330;48.158;11.816;2024-02-15T06:39:38;6.10;98.50
4635;DHT22;2330;48.158;11.816;2024-02-15T06:42:15;6.20;98.50
4635;DHT22;2330;48.158;11.816;2024-02-15T06:44:44;6.20;98.50
4635;DHT22;2330;48.158;11.816;2024-02-15T06:47:11;6.20;98.50
4635;DHT22;2330;48.158;11.816;2024-02-15T06:49:39;6.20;98.50
4635;DHT22;2330;48.158;11.816;2024-02-15T06:52:10;6.20;98.50
4635;DHT22;2330;48.158;11.816;2024-02-15T06:54:42;6.20;98.50
4635;DHT22;2330;48.158;11.816;2024-02-15T06:57:09;6.20;98.50
4635;DHT22;2330;48.158;11.816;2024-02-15T06:59:36;6.30;98.50
4635;DHT22;2330;48.158;11.816;2024-02-15T07:02:05;6.30;98.50
4635;DHT22;2330;48.158;11.816;2024-02-15T07:04:35;6.30;98.50
4635;DHT22;2330;48.158;11.816;2024-02-15T07:07:04;6.40;98.50
4635;DHT22;2330;48.158;11.816;2024-02-15T07:09:31;6.50;98.50
4635;DHT22;2330;48.158;11.816;2024-02-15T07:11:59;6.60;98.50
4635;DHT22;2330;48.158;11.816;2024-02-15T07:14:26;6.70;98.50
4635;DHT22;2330;48.158;11.816;2024-02-15T07:16:55;6.90;98.50
4635;DHT22;2330;48.158;11.816;2024-02-15T07:19:25;7.00;98.50
4635;DHT22;2330;48.158;11.816;2024-02-15T07:21:54;7.10;98.50
4635;DHT22;2330;48.158;11.816;2024-02-15T07:24:23;7.20;98.50
4635;DHT22;2330;48.158;11.816;2024-02-15T07:26:54;7.30;98.50
4635;DHT22;2330;48.158;11.816;2024-02-15T07:29:24;7.40;98.50
4635;DHT22;2330;48.158;11.816;2024-02-15T07:31:52;7.40;98.50
4635;DHT22;2330;48.158;11.816;2024-02-15T07:34:20;7.50;98.50
4635;DHT22;2330;48.158;11.816;2024-02-15T07:36:47;7.50;98.50
4635;DHT22;2330;48.158;11.816;2024-02-15T07:39:14;7.50;98.50
4635;DHT22;2330;48.158;11.816;2024-02-15T07:41:51;7.60;98.50
4635;DHT22;2330;48.158;11.816;2024-02-15T07:44:18;7.70;98.50
4635;DHT22;2330;48.158;11.816;2024-02-15T07:46:46;7.90;98.50
4635;DHT22;2330;48.158;11.816;2024-02-15T07:49:13;8.10;98.50
4635;DHT22;2330;48.158;11.816;2024-02-15T07:51:40;8.40;98.50
4635;DHT22;2330;48.158;11.816;2024-02-15T07:54:07;8.60;98.50
4635;DHT22;2330;48.158;11.816;2024-02-15T07:56:34;8.90;98.50
4635;DHT22;2330;48.158;11.816;2024-02-15T07:59:02;9.10;98.50
4635;DHT22;2330;48.158;11.816;2024-02-15T08:01:29;9.40;98.50
4635;DHT22;2330;48.158;11.816;2024-02-15T08:03:58;9.70;98.50
4635;DHT22;2330;48.158;11.816;2024-02-15T08:06:24;9.90;98.50
4635;DHT22;2330;48.158;11.816;2024-02-15T08:08:53;10.10;98.50
4635;DHT22;2330;48.158;11.816;2024-02-15T08:11:20;10.10;98.50
4635;DHT22;2330;48.158;11.816;2024-02-15T08:13:48;10.30;98.50
4635;DHT22;2330;48.158;11.816;2024-02-15T08:16:18;10.40;98.50
4635;DHT22;2330;48.158;11.816;2024-02-15T08:18:45;10.50;98.50
4635;DHT22;2330;48.158;11.816;2024-02-15T08:21:15;10.60;98.50
4635;DHT22;2330;48.158;11.816;2024-02-15T08:23:42;10.80;98.50
4635;DHT22;2330;48.158;11.816;2024-02-15T08:26:10;11.00;98.50
4635;DHT22;2330;48.158;11.816;2024-02-15T08:28:39;11.10;98.50
4635;DHT22;2330;48.158;11.816;2024-02-15T08:31:06;11.20;98.50
4635;DHT22;2330;48.158;11.816;2024-02-15T08:33:35;11.40;98.50
4635;DHT22;2330;48.158;11.816;2024-02-15T08:36:05;11.70;98.50
4635;DHT22;2330;48.158;11.816;2024-02-15T08:38:32;11.80;98.50
4635;DHT22;2330;48.158;11.816;2024-02-15T08:41:00;12.10;98.50
4635;DHT22;2330;48.158;11.816;2024-02-15T08:43:27;12.30;98.50
4635;DHT22;2330;48.158;11.816;2024-02-15T08:45:54;12.40;98.50
4635;DHT22;2330;48.158;11.816;2024-02-15T08:48:21;12.50;98.50
4635;DHT22;2330;48.158;11.816;2024-02-15T08:50:49;12.40;98.50
4635;DHT22;2330;48.158;11.816;2024-02-15T08:53:16;12.40;98.50
4635;DHT22;2330;48.158;11.816;2024-02-15T08:55:45;12.20;98.50
4635;DHT22;2330;48.158;11.816;2024-02-15T08:58:12;12.30;98.50
4635;DHT22;2330;48.158;11.816;2024-02-15T09:00:40;12.30;98.50
4635;DHT22;2330;48.158;11.816;2024-02-15T09:03:11;12.30;98.50
4635;DHT22;2330;48.158;11.816;2024-02-15T09:05:41;12.50;98.50
4635;DHT22;2330;48.158;11.816;2024-02-15T09:08:08;12.50;98.50
4635;DHT22;2330;48.158;11.816;2024-02-15T09:10:35;12.70;98.50
4635;DHT22;2330;48.158;11.816;2024-02-15T09:13:05;13.00;98.50
4635;DHT22;2330;48.158;11.816;2024-02-15T09:15:33;13.10;98.50
4635;DHT22;2330;48.158;11.816;2024-02-15T09:18:00;13.20;98.50
4635;DHT22;2330;48.158;11.816;2024-02-15T09:20:27;13.30;98.50
4635;DHT22;2330;48.158;11.816;2024-02-15T09:22:58;13.40;98.10
4635;DHT22;2330;48.158;11.816;2024-02-15T09:25:37;13.60;97.00
4635;DHT22;2330;48.158;11.816;2024-02-15T09:28:04;13.80;96.40
4635;DHT22;2330;48.158;11.816;2024-02-15T09:30:31;13.60;97.30
4635;DHT22;2330;48.158;11.816;2024-02-15T09:32:58;13.70;96.40
4635;DHT22;2330;48.158;11.816;2024-02-15T09:35:25;14.00;97.30
4635;DHT22;2330;48.158;11.816;2024-02-15T09:37:52;14.10;96.60
4635;DHT22;2330;48.158;11.816;2024-02-15T09:40:23;14.30;96.50
4635;DHT22;2330;48.158;11.816;2024-02-15T09:42:53;14.20;96.50
4635;DHT22;2330;48.158;11.816;2024-02-15T09:45:20;14.30;96.10
4635;DHT22;2330;48.158;11.816;2024-02-15T09:47:47;14.40;95.40
4635;DHT22;2330;48.158;11.816;2024-02-15T09:50:19;14.50;96.00
4635;DHT22;2330;48.158;11.816;2024-02-15T09:52:53;14.40;95.50
4635;DHT22;2330;48.158;11.816;2024-02-15T09:55:24;14.40;95.70
4635;DHT22;2330;48.158;11.816;2024-02-15T09:57:52;14.40;96.00
4635;DHT22;2330;48.158;11.816;2024-02-15T10:00:19;14.40;96.00
4635;DHT22;2330;48.158;11.816;2024-02-15T10:02:50;14.30;96.10
4635;DHT22;2330;48.158;11.816;2024-02-15T10:05:18;14.40;95.90
4635;DHT22;2330;48.158;11.816;2024-02-15T10:07:46;14.40;95.90
4635;DHT22;2330;48.158;11.816;2024-02-15T10:10:23;14.40;95.90
4635;DHT22;2330;48.158;11.816;2024-02-15T10:12:54;14.50;95.90
4635;DHT22;2330;48.158;11.816;2024-02-15T10:18:07;14.50;95.40
4635;DHT22;2330;48.158;11.816;2024-02-15T10:20:37;14.60;94.90
4635;DHT22;2330;48.158;11.816;2024-02-15T10:25:36;14.80;95.10
4635;DHT22;2330;48.158;11.816;2024-02-15T10:28:07;14.90;94.80
4635;DHT22;2330;48.158;11.816;2024-02-15T10:30:42;14.70;94.30
4635;DHT22;2330;48.158;11.816;2024-02-15T10:33:29;14.70;94.70
4635;DHT22;2330;48.158;11.816;2024-02-15T10:38:34;15.30;93.60
4635;DHT22;2330;48.158;11.816;2024-02-15T10:41:04;15.20;93.70
4635;DHT22;2330;48.158;11.816;2024-02-15T10:43:34;15.10;93.70
4635;DHT22;2330;48.158;11.816;2024-02-15T10:46:02;15.10;93.40
4635;DHT22;2330;48.158;11.816;2024-02-15T10:48:29;15.10;93.90
4635;DHT22;2330;48.158;11.816;2024-02-15T10:50:59;15.20;93.40
4635;DHT22;2330;48.158;11.816;2024-02-15T10:53:30;15.20;93.60
4635;DHT22;2330;48.158;11.816;2024-02-15T10:56:17;15.30;93.00
4635;DHT22;2330;48.158;11.816;2024-02-15T10:59:19;15.40;93.60
4635;DHT22;2330;48.158;11.816;2024-02-15T11:01:50;15.60;92.50
4635;DHT22;2330;48.158;11.816;2024-02-15T11:04:22;15.70;92.20
4635;DHT22;2330;48.158;11.816;2024-02-15T11:06:54;15.60;92.90
4635;DHT22;2330;48.158;11.816;2024-02-15T11:09:22;15.50;92.90
4635;DHT22;2330;48.158;11.816;2024-02-15T11:11:50;15.60;92.10
4635;DHT22;2330;48.158;11.816;2024-02-15T11:14:31;15.60;92.00
4635;DHT22;2330;48.158;11.816;2024-02-15T11:17:01;15.70;92.30
4635;DHT22;2330;48.158;11.816;2024-02-15T11:22:11;15.60;91.80
4635;DHT22;2330;48.158;11.816;2024-02-15T11:24:49;15.60;91.70
4635;DHT22;2330;48.158;11.816;2024-02-15T11:27:25;15.80;91.40
4635;DHT22;2330;48.158;11.816;2024-02-15T11:30:01;16.00;91.50
4635;DHT22;2330;48.158;11.816;2024-02-15T11:32:50;16.20;90.60
4635;DHT22;2330;48.158;11.816;2024-02-15T11:35:26;16.30;90.00
4635;DHT22;2330;48.158;11.816;2024-02-15T11:37:56;16.30;90.20
4635;DHT22;2330;48.158;11.816;2024-02-15T11:46:12;16.10;90.50
4635;DHT22;2330;48.158;11.816;2024-02-15T11:48:40;16.20;90.10
4635;DHT22;2330;48.158;11.816;2024-02-15T11:51:07;16.40;90.50
4635;DHT22;2330;48.158;11.816;2024-02-15T11:53:38;16.30;90.00
4635;DHT22;2330;48.158;11.816;2024-02-15T11:56:07;16.30;89.90
4635;DHT22;2330;48.158;11.816;2024-02-15T11:58:37;16.40;90.30
4635;DHT22;2330;48.158;11.816;2024-02-15T12:01:19;16.50;89.60
4635;DHT22;2330;48.158;11.816;2024-02-15T12:04:05;16.60;89.90
4635;DHT22;2330;48.158;11.816;2024-02-15T12:06:58;16.70;89.00
4635;DHT22;2330;48.158;11.816;2024-02-15T12:09:44;16.50;88.30
4635;DHT22;2330;48.158;11.816;2024-02-15T12:12:32;16.40;88.40
4635;DHT22;2330;48.158;11.816;2024-02-15T12:15:18;16.50;89.40
4635;DHT22;2330;48.158;11.816;2024-02-15T12:18:17;16.90;87.70
4635;DHT22;2330;48.158;11.816;2024-02-15T12:21:03;17.20;87.20
4635;DHT22;2330;48.158;11.816;2024-02-15T12:23:32;17.20;87.40
4635;DHT22;2330;48.158;11.816;2024-02-15T12:26:02;16.90;88.20
4635;DHT22;2330;48.158;11.816;2024-02-15T12:28:32;17.00;88.30
4635;DHT22;2330;48.158;11.816;2024-02-15T12:30:58;17.30;87.40
4635;DHT22;2330;48.158;11.816;2024-02-15T12:33:25;17.20;86.20
4635;DHT22;2330;48.158;11.816;2024-02-15T12:36:06;17.00;86.70
4635;DHT22;2330;48.158;11.816;2024-02-15T12:38:35;17.20;87.50
4635;DHT22;2330;48.158;11.816;2024-02-15T12:41:20;17.40;87.40
4635;DHT22;2330;48.158;11.816;2024-02-15T12:43:52;17.20;86.80
4635;DHT22;2330;48.158;11.816;2024-02-15T12:46:19;16.90;87.30
4635;DHT22;2330;48.158;11.816;2024-02-15T12:48:46;16.80;87.60
4635;DHT22;2330;48.158;11.816;2024-02-15T12:51:14;16.70;88.50
4635;DHT22;2330;48.158;11.816;2024-02-15T12:53:42;16.50;88.50
4635;DHT22;2330;48.158;11.816;2024-02-15T12:56:09;16.60;88.50
4635;DHT22;2330;48.158;11.816;2024-02-15T12:58:36;16.60;89.10
4635;DHT22;2330;48.158;11.816;2024-02-15T13:01:03;16.10;88.20
4635;DHT22;2330;48.158;11.816;2024-02-15T13:03:31;16.20;88.60
4635;DHT22;2330;48.158;11.816;2024-02-15T13:05:59;16.50;88.60
4635;DHT22;2330;48.158;11.816;2024-02-15T13:08:26;16.70;87.30
4635;DHT22;2330;48.158;11.816;2024-02-15T13:10:53;16.90;87.10
4635;DHT22;2330;48.158;11.816;2024-02-15T13:13:19;16.90;86.80
4635;DHT22;2330;48.158;11.816;2024-02-15T13:15:48;16.80;87.30
4635;DHT22;2330;48.158;11.816;2024-02-15T13:18:18;17.00;87.20
4635;DHT22;2330;48.158;11.816;2024-02-15T13:20:46;16.90;86.70
4635;DHT22;2330;48.158;11.816;2024-02-15T13:23:16;16.40;87.80
4635;DHT22;2330;48.158;11.816;2024-02-15T13:25:50;16.00;88.60
4635;DHT22;2330;48.158;11.816;2024-02-15T13:28:18;15.80;89.70
4635;DHT22;2330;48.158;11.816;2024-02-15T13:30:45;16.10;89.30
4635;DHT22;2330;48.158;11.816;2024-02-15T13:33:13;16.20;89.00
4635;DHT22;2330;48.158;11.816;2024-02-15T13:35:40;16.20;89.20
4635;DHT22;2330;48.158;11.816;2024-02-15T13:38:08;16.30;89.20
4635;DHT22;2330;48.158;11.816;2024-02-15T13:40:42;16.30;89.30
4635;DHT22;2330;48.158;11.816;2024-02-15T13:43:09;16.00;90.00
4635;DHT22;2330;48.158;11.816;2024-02-15T13:45:42;15.60;90.80
4635;DHT22;2330;48.158;11.816;2024-02-15T13:48:11;15.60;90.80
4635;DHT22;2330;48.158;11.816;2024-02-15T13:50:41;15.60;91.20
4635;DHT22;2330;48.158;11.816;2024-02-15T13:53:09;15.60;91.30
4635;DHT22;2330;48.158;11.816;2024-02-15T13:55:37;15.70;91.30
4635;DHT22;2330;48.158;11.816;2024-02-15T13:58:04;15.60;91.60
4635;DHT22;2330;48.158;11.816;2024-02-15T14:00:30;15.70;91.50
4635;DHT22;2330;48.158;11.816;2024-02-15T14:03:01;15.60;92.00
4635;DHT22;2330;48.158;11.816;2024-02-15T14:05:30;15.50;92.60
4635;DHT22;2330;48.158;11.816;2024-02-15T14:08:04;15.60;92.50
4635;DHT22;2330;48.158;11.816;2024-02-15T14:10:35;15.80;91.10
4635;DHT22;2330;48.158;11.816;2024-02-15T14:13:04;16.00;91.30
4635;DHT22;2330;48.158;11.816;2024-02-15T14:15:38;15.80;92.10
4635;DHT22;2330;48.158;11.816;2024-02-15T14:18:10;15.80;92.00
4635;DHT22;2330;48.158;11.816;2024-02-15T14:20:38;15.90;92.00
4635;DHT22;2330;48.158;11.816;2024-02-15T14:23:05;16.00;91.30
4635;DHT22;2330;48.158;11.816;2024-02-15T14:25:33;16.10;91.20
4635;DHT22;2330;48.158;11.816;2024-02-15T14:28:00;16.00;90.20
4635;DHT22;2330;48.158;11.816;2024-02-15T14:30:27;15.80;91.10
4635;DHT22;2330;48.158;11.816;2024-02-15T14:33:13;15.80;91.70
4635;DHT22;2330;48.158;11.816;2024-02-15T14:35:45;15.90;91.30
4635;DHT22;2330;48.158;11.816;2024-02-15T14:38:13;15.90;91.20
4635;DHT22;2330;48.158;11.816;2024-02-15T14:40:44;16.00;91.20
4635;DHT22;2330;48.158;11.816;2024-02-15T14:43:25;16.10;91.10
4635;DHT22;2330;48.158;11.816;2024-02-15T14:45:55;16.30;90.60
4635;DHT22;2330;48.158;11.816;2024-02-15T14:48:25;16.40;91.40
4635;DHT22;2330;48.158;11.816;2024-02-15T14:50:53;16.50;90.60
4635;DHT22;2330;48.158;11.816;2024-02-15T14:53:22;16.50;90.70
4635;DHT22;2330;48.158;11.816;2024-02-15T14:55:50;16.60;90.90
4635;DHT22;2330;48.158;11.816;2024-02-15T14:58:19;16.30;89.90
4635;DHT22;2330;48.158;11.816;2024-02-15T15:00:49;16.10;90.60
4635;DHT22;2330;48.158;11.816;2024-02-15T15:03:17;16.30;90.80
4635;DHT22;2330;48.158;11.816;2024-02-15T15:05:44;16.50;90.30
4635;DHT22;2330;48.158;11.816;2024-02-15T15:08:31;16.60;90.00
4635;DHT22;2330;48.158;11.816;2024-02-15T15:11:19;16.40;89.70
4635;DHT22;2330;48.158;11.816;2024-02-15T15:14:05;16.30;90.00
4635;DHT22;2330;48.158;11.816;2024-02-15T15:16:33;16.10;90.60
4635;DHT22;2330;48.158;11.816;2024-02-15T15:19:01;16.00;90.90
4635;DHT22;2330;48.158;11.816;2024-02-15T15:21:30;15.90;91.40
4635;DHT22;2330;48.158;11.816;2024-02-15T15:23:57;16.00;91.30
4635;DHT22;2330;48.158;11.816;2024-02-15T15:26:24;16.00;91.00
4635;DHT22;2330;48.158;11.816;2024-02-15T15:28:51;15.90;91.10
4635;DHT22;2330;48.158;11.816;2024-02-15T15:31:18;15.70;91.30
4635;DHT22;2330;48.158;11.816;2024-02-15T15:33:48;15.50;92.10
4635;DHT22;2330;48.158;11.816;2024-02-15T15:36:19;15.30;92.50
4635;DHT22;2330;48.158;11.816;2024-02-15T15:38:48;15.10;92.80
4635;DHT22;2330;48.158;11.816;2024-02-15T15:41:17;14.80;93.50
4635;DHT22;2330;48.158;11.816;2024-02-15T15:43:44;14.70;94.10
4635;DHT22;2330;48.158;11.816;2024-02-15T15:46:15;14.60;94.60
4635;DHT22;2330;48.158;11.816;2024-02-15T15:48:43;14.40;95.50
4635;DHT22;2330;48.158;11.816;2024-02-15T15:51:12;14.30;95.90
4635;DHT22;2330;48.158;11.816;2024-02-15T15:53:42;14.20;96.50
4635;DHT22;2330;48.158;11.816;2024-02-15T15:56:09;14.10;96.90
4635;DHT22;2330;48.158;11.816;2024-02-15T15:58:36;14.00;97.60
4635;DHT22;2330;48.158;11.816;2024-02-15T16:01:03;13.90;98.00
4635;DHT22;2330;48.158;11.816;2024-02-15T16:03:31;13.80;98.30
4635;DHT22;2330;48.158;11.816;2024-02-15T16:05:58;13.70;98.50
4635;DHT22;2330;48.158;11.816;2024-02-15T16:08:25;13.60;98.50
4635;DHT22;2330;48.158;11.816;2024-02-15T16:10:53;13.50;98.50
4635;DHT22;2330;48.158;11.816;2024-02-15T16:13:22;13.40;98.50
4635;DHT22;2330;48.158;11.816;2024-02-15T16:15:52;13.30;98.50
4635;DHT22;2330;48.158;11.816;2024-02-15T16:18:20;13.20;98.50
4635;DHT22;2330;48.158;11.816;2024-02-15T16:20:48;13.10;98.50
4635;DHT22;2330;48.158;11.816;2024-02-15T16:23:19;13.00;98.50
4635;DHT22;2330;48.158;11.816;2024-02-15T16:25:46;12.90;98.50